Quenames — WTU9038 — position and weather

sailwx.info

Track history (hours):
 
Tides and Currents Weather Stations Pressure Air Temp Water Temp Dewpoint Dewpoint Depression Visibility Wind Speed Wind Dir Waves Ship Positions

Quenames

Owner: BOSTON MARINE TRANSPORT INC, EAST BOSTON, MA. More information available from US FCC via Universal Licensing System and Coast Guard Vessel Documentation Center.

Last reported at 2015-Feb-19 15:21 UTC. Time now 2015-Aug-02 10:18 UTC.
Position N 34°39' W 076°59'.
Warning: this ship's position is months out of date.

Length 23 m.

Type: Tug. MMSI: 367022790.

Date/timePositionNaut miles runAvg speedWind from/ knotsBaromVisibWave heightAir tempDewpointWater temp
2015-Feb-19 15:21N 34°39' W 076°59'2 2.8
2015-Feb-19 14:33N 34°40' W 076°57'2 2.3
2015-Feb-19 13:33N 34°40' W 076°54'2 2.3
2015-Feb-19 12:34N 34°40' W 076°51'7 6.6
2015-Feb-19 11:33N 34°40' W 076°43'8 7.9
2015-Feb-19 10:33N 34°35' W 076°36'7 7.3
2015-Feb-19 09:33N 34°29' W 076°31'17 7.2
2015-Feb-19 07:09N 34°44' W 076°22'30110.1
2015-Feb-18 01:29N 39°28' W 074°14'1011.2
2015-Feb-18 00:33N 39°37' W 074°08'1211.0
2015-Feb-17 23:28N 39°48' W 074°03'2411.0
2015-Feb-17 21:17N 40°12' W 073°57'910.9
2015-Feb-17 20:26N 40°21' W 073°55'9 9.2
2015-Feb-17 19:29N 40°29' W 073°60'12 5.8
2015-Feb-17 17:25N 40°32' W 074°15'1 0.1
2015-Feb-17 11:21N 40°32' W 074°15'0 0.0
2015-Feb-16 23:10N 40°32' W 074°15'2 0.1
2015-Feb-16 00:17N 40°33' W 074°14'5 7.0
2015-Feb-15 23:33N 40°38' W 074°12'0 0.0
2015-Feb-15 22:31N 40°38' W 074°12'1 1.0
2015-Feb-15 21:32N 40°39' W 074°11'3 1.5
2015-Feb-15 19:28N 40°39' W 074°07'0 0.0
2015-Feb-15 18:27N 40°39' W 074°07'10 7.1
2015-Feb-15 17:06N 40°32' W 074°15'0 0.0
2015-Feb-15 16:10N 40°32' W 074°15'0 0.0
2015-Feb-15 15:05N 40°32' W 074°15'0 0.0
2015-Feb-15 14:24N 40°32' W 074°15'0 0.0
2015-Feb-14 19:13N 40°32' W 074°15'  
Track history (hours):
 
Tides and Currents Weather Stations Pressure Air Temp Water Temp Dewpoint Dewpoint Depression Visibility Wind Speed Wind Dir Waves Ship Positions

Quenames

Owner: BOSTON MARINE TRANSPORT INC, EAST BOSTON, MA. More information available from US FCC via Universal Licensing System and Coast Guard Vessel Documentation Center.

Last reported at 2015-Feb-19 15:21 UTC. Time now 2015-Aug-02 10:18 UTC.
Position N 34°39' W 076°59'.
Warning: this ship's position is months out of date.

Length 23 m.

Type: Tug. MMSI: 367022790.

Date/timePositionNaut miles runAvg speedWind from/ knotsBaromVisibWave heightAir tempDewpointWater temp
2015-Feb-19 15:21N 34°39' W 076°59'2 2.8
2015-Feb-19 14:33N 34°40' W 076°57'2 2.3
2015-Feb-19 13:33N 34°40' W 076°54'2 2.3
2015-Feb-19 12:34N 34°40' W 076°51'7 6.6
2015-Feb-19 11:33N 34°40' W 076°43'8 7.9
2015-Feb-19 10:33N 34°35' W 076°36'7 7.3
2015-Feb-19 09:33N 34°29' W 076°31'17 7.2
2015-Feb-19 07:09N 34°44' W 076°22'30110.1
2015-Feb-18 01:29N 39°28' W 074°14'1011.2
2015-Feb-18 00:33N 39°37' W 074°08'1211.0
2015-Feb-17 23:28N 39°48' W 074°03'2411.0
2015-Feb-17 21:17N 40°12' W 073°57'910.9
2015-Feb-17 20:26N 40°21' W 073°55'9 9.2
2015-Feb-17 19:29N 40°29' W 073°60'12 5.8
2015-Feb-17 17:25N 40°32' W 074°15'1 0.1
2015-Feb-17 11:21N 40°32' W 074°15'0 0.0
2015-Feb-16 23:10N 40°32' W 074°15'2 0.1
2015-Feb-16 00:17N 40°33' W 074°14'5 7.0
2015-Feb-15 23:33N 40°38' W 074°12'0 0.0
2015-Feb-15 22:31N 40°38' W 074°12'1 1.0
2015-Feb-15 21:32N 40°39' W 074°11'3 1.5
2015-Feb-15 19:28N 40°39' W 074°07'0 0.0
2015-Feb-15 18:27N 40°39' W 074°07'10 7.1
2015-Feb-15 17:06N 40°32' W 074°15'0 0.0
2015-Feb-15 16:10N 40°32' W 074°15'0 0.0
2015-Feb-15 15:05N 40°32' W 074°15'0 0.0
2015-Feb-15 14:24N 40°32' W 074°15'0 0.0
2015-Feb-14 19:13N 40°32' W 074°15'  

Dump ship's entire track history